sensor_id;sensor_type;location;lat;lon;timestamp;pressure;altitude;pressure_sealevel;temperature;humidity
79376;BME280;68846;53.150;18.136;2024-02-15T00:02:27;101450.41;;;6.20;81.84
79376;BME280;68846;53.150;18.136;2024-02-15T00:04:54;101447.45;;;6.21;81.97
79376;BME280;68846;53.150;18.136;2024-02-15T00:07:21;101443.01;;;6.24;82.03
79376;BME280;68846;53.150;18.136;2024-02-15T00:09:49;101444.91;;;6.27;82.04
79376;BME280;68846;53.150;18.136;2024-02-15T00:12:17;101445.23;;;6.30;82.22
79376;BME280;68846;53.150;18.136;2024-02-15T00:14:44;101440.22;;;6.32;82.11
79376;BME280;68846;53.150;18.136;2024-02-15T00:17:11;101442.18;;;6.33;82.20
79376;BME280;68846;53.150;18.136;2024-02-15T00:19:38;101444.06;;;6.36;82.23
79376;BME280;68846;53.150;18.136;2024-02-15T00:22:08;101442.13;;;6.36;82.28
79376;BME280;68846;53.150;18.136;2024-02-15T00:24:39;101439.42;;;6.34;82.22
79376;BME280;68846;53.150;18.136;2024-02-15T00:27:08;101440.46;;;6.34;82.22
79376;BME280;68846;53.150;18.136;2024-02-15T00:29:35;101434.36;;;6.34;82.23
79376;BME280;68846;53.150;18.136;2024-02-15T00:32:03;101439.66;;;6.36;82.45
79376;BME280;68846;53.150;18.136;2024-02-15T00:34:33;101437.81;;;6.38;82.74
79376;BME280;68846;53.150;18.136;2024-02-15T00:37:00;101439.83;;;6.40;82.50
79376;BME280;68846;53.150;18.136;2024-02-15T00:39:27;101438.34;;;6.42;82.67
79376;BME280;68846;53.150;18.136;2024-02-15T00:41:54;101438.63;;;6.45;82.58
79376;BME280;68846;53.150;18.136;2024-02-15T00:44:22;101438.73;;;6.48;82.61
79376;BME280;68846;53.150;18.136;2024-02-15T00:46:49;101436.47;;;6.48;82.63
79376;BME280;68846;53.150;18.136;2024-02-15T00:49:17;101439.49;;;6.49;82.72
79376;BME280;68846;53.150;18.136;2024-02-15T00:51:47;101435.13;;;6.49;82.55
79376;BME280;68846;53.150;18.136;2024-02-15T00:54:15;101437.40;;;6.49;82.49
79376;BME280;68846;53.150;18.136;2024-02-15T00:56:42;101440.69;;;6.48;82.72
79376;BME280;68846;53.150;18.136;2024-02-15T00:59:09;101437.70;;;6.48;82.47
79376;BME280;68846;53.150;18.136;2024-02-15T01:01:36;101437.91;;;6.49;82.59
79376;BME280;68846;53.150;18.136;2024-02-15T01:04:04;101436.91;;;6.50;82.83
79376;BME280;68846;53.150;18.136;2024-02-15T01:06:33;101435.75;;;6.52;82.86
79376;BME280;68846;53.150;18.136;2024-02-15T01:09:00;101433.62;;;6.55;82.89
79376;BME280;68846;53.150;18.136;2024-02-15T01:11:30;101438.55;;;6.56;83.06
79376;BME280;68846;53.150;18.136;2024-02-15T01:14:03;101432.65;;;6.57;83.05
79376;BME280;68846;53.150;18.136;2024-02-15T01:16:30;101434.55;;;6.57;82.87
79376;BME280;68846;53.150;18.136;2024-02-15T01:18:57;101433.44;;;6.55;83.10
79376;BME280;68846;53.150;18.136;2024-02-15T01:21:24;101430.98;;;6.55;83.30
79376;BME280;68846;53.150;18.136;2024-02-15T01:23:51;101431.26;;;6.53;83.26
79376;BME280;68846;53.150;18.136;2024-02-15T01:26:20;101428.73;;;6.52;83.10
79376;BME280;68846;53.150;18.136;2024-02-15T01:28:47;101433.06;;;6.50;83.29
79376;BME280;68846;53.150;18.136;2024-02-15T01:31:15;101433.77;;;6.50;83.40
79376;BME280;68846;53.150;18.136;2024-02-15T01:33:44;101429.08;;;6.51;83.04
79376;BME280;68846;53.150;18.136;2024-02-15T01:36:18;101428.07;;;6.53;83.36
79376;BME280;68846;53.150;18.136;2024-02-15T01:38:46;101426.73;;;6.54;83.70
79376;BME280;68846;53.150;18.136;2024-02-15T01:41:13;101423.66;;;6.56;83.55
79376;BME280;68846;53.150;18.136;2024-02-15T01:43:44;101419.90;;;6.58;83.65
79376;BME280;68846;53.150;18.136;2024-02-15T01:46:15;101414.55;;;6.60;83.62
79376;BME280;68846;53.150;18.136;2024-02-15T01:48:43;101412.19;;;6.62;83.68
79376;BME280;68846;53.150;18.136;2024-02-15T01:51:12;101413.52;;;6.65;83.59
79376;BME280;68846;53.150;18.136;2024-02-15T01:53:42;101408.89;;;6.67;83.61
79376;BME280;68846;53.150;18.136;2024-02-15T01:56:59;101409.12;;;6.69;83.35
79376;BME280;68846;53.150;18.136;2024-02-15T02:00:17;101410.41;;;6.71;83.36
79376;BME280;68846;53.150;18.136;2024-02-15T02:02:45;101407.89;;;6.74;83.74
79376;BME280;68846;53.150;18.136;2024-02-15T02:05:13;101404.26;;;6.75;83.39
79376;BME280;68846;53.150;18.136;2024-02-15T02:21:27;101397.84;;;6.76;83.33
79376;BME280;68846;53.150;18.136;2024-02-15T02:24:27;101396.59;;;6.76;83.52
79376;BME280;68846;53.150;18.136;2024-02-15T02:26:55;101396.97;;;6.77;83.51
79376;BME280;68846;53.150;18.136;2024-02-15T02:38:12;101392.07;;;6.81;83.72
79376;BME280;68846;53.150;18.136;2024-02-15T02:41:04;101388.92;;;6.81;83.93
79376;BME280;68846;53.150;18.136;2024-02-15T02:43:33;101391.33;;;6.80;83.68
79376;BME280;68846;53.150;18.136;2024-02-15T02:46:01;101390.42;;;6.79;83.77
79376;BME280;68846;53.150;18.136;2024-02-15T03:03:28;101392.23;;;6.81;83.80
79376;BME280;68846;53.150;18.136;2024-02-15T03:10:31;101386.86;;;6.87;83.82
79376;BME280;68846;53.150;18.136;2024-02-15T03:18:54;101386.00;;;6.92;83.63
79376;BME280;68846;53.150;18.136;2024-02-15T03:22:12;101385.01;;;6.94;83.95
79376;BME280;68846;53.150;18.136;2024-02-15T03:24:41;101391.40;;;6.96;83.77
79376;BME280;68846;53.150;18.136;2024-02-15T03:41:18;101393.19;;;6.92;84.23
79376;BME280;68846;53.150;18.136;2024-02-15T03:48:28;101392.77;;;6.86;83.98
79376;BME280;68846;53.150;18.136;2024-02-15T03:50:56;101397.83;;;6.85;84.29
79376;BME280;68846;53.150;18.136;2024-02-15T03:57:33;101391.23;;;6.87;84.48
79376;BME280;68846;53.150;18.136;2024-02-15T04:04:09;101388.97;;;6.91;84.74
79376;BME280;68846;53.150;18.136;2024-02-15T04:06:36;101387.64;;;6.94;84.62
79376;BME280;68846;53.150;18.136;2024-02-15T04:14:05;101386.88;;;6.96;84.67
79376;BME280;68846;53.150;18.136;2024-02-15T04:16:32;101387.59;;;6.97;84.68
79376;BME280;68846;53.150;18.136;2024-02-15T04:19:52;101384.09;;;6.97;84.74
79376;BME280;68846;53.150;18.136;2024-02-15T04:22:21;101386.73;;;6.97;84.45
79376;BME280;68846;53.150;18.136;2024-02-15T04:29:51;101399.27;;;6.96;84.76
79376;BME280;68846;53.150;18.136;2024-02-15T04:32:18;101398.34;;;6.94;84.73
79376;BME280;68846;53.150;18.136;2024-02-15T04:35:38;101400.74;;;6.93;85.00
79376;BME280;68846;53.150;18.136;2024-02-15T04:53:07;101408.23;;;7.02;85.43
79376;BME280;68846;53.150;18.136;2024-02-15T04:59:43;101403.45;;;7.05;85.34
79376;BME280;68846;53.150;18.136;2024-02-15T05:07:14;101404.92;;;7.12;85.35
79376;BME280;68846;53.150;18.136;2024-02-15T05:14:25;101409.34;;;7.18;85.42
79376;BME280;68846;53.150;18.136;2024-02-15T05:25:16;101398.77;;;7.16;85.74
79376;BME280;68846;53.150;18.136;2024-02-15T05:27:49;101395.32;;;7.17;85.57
79376;BME280;68846;53.150;18.136;2024-02-15T05:34:53;101401.59;;;7.20;85.67
79376;BME280;68846;53.150;18.136;2024-02-15T05:41:11;101403.72;;;7.27;85.69
79376;BME280;68846;53.150;18.136;2024-02-15T05:43:39;101405.88;;;7.28;85.57
79376;BME280;68846;53.150;18.136;2024-02-15T05:46:09;101407.52;;;7.30;85.53
79376;BME280;68846;53.150;18.136;2024-02-15T05:54:02;101399.10;;;7.35;85.22
79376;BME280;68846;53.150;18.136;2024-02-15T06:01:09;101407.74;;;7.37;85.28
79376;BME280;68846;53.150;18.136;2024-02-15T06:12:30;101419.59;;;7.30;85.60
79376;BME280;68846;53.150;18.136;2024-02-15T06:19:14;101422.33;;;7.32;85.58
79376;BME280;68846;53.150;18.136;2024-02-15T06:26:43;101431.92;;;7.37;85.95
79376;BME280;68846;53.150;18.136;2024-02-15T06:29:11;101435.13;;;7.38;85.57
79376;BME280;68846;53.150;18.136;2024-02-15T06:36:57;101439.02;;;7.44;85.29
79376;BME280;68846;53.150;18.136;2024-02-15T06:44:48;101437.98;;;7.49;85.34
79376;BME280;68846;53.150;18.136;2024-02-15T06:51:52;101439.48;;;7.52;85.45
79376;BME280;68846;53.150;18.136;2024-02-15T07:02:13;101448.39;;;7.56;85.22
79376;BME280;68846;53.150;18.136;2024-02-15T07:09:41;101459.96;;;7.51;85.07
79376;BME280;68846;53.150;18.136;2024-02-15T07:13:02;101458.80;;;7.48;85.86
79376;BME280;68846;53.150;18.136;2024-02-15T07:15:30;101463.02;;;7.48;85.75
79376;BME280;68846;53.150;18.136;2024-02-15T07:17:59;101462.81;;;7.48;85.99
79376;BME280;68846;53.150;18.136;2024-02-15T07:20:30;101467.05;;;7.48;85.99
79376;BME280;68846;53.150;18.136;2024-02-15T07:22:58;101467.31;;;7.50;85.29
79376;BME280;68846;53.150;18.136;2024-02-15T07:25:25;101468.92;;;7.51;85.75
79376;BME280;68846;53.150;18.136;2024-02-15T07:27:52;101467.70;;;7.51;85.99
79376;BME280;68846;53.150;18.136;2024-02-15T07:30:22;101467.73;;;7.53;85.58
79376;BME280;68846;53.150;18.136;2024-02-15T07:32:50;101467.41;;;7.54;85.51
79376;BME280;68846;53.150;18.136;2024-02-15T07:35:17;101468.28;;;7.54;85.52
79376;BME280;68846;53.150;18.136;2024-02-15T07:37:52;101467.21;;;7.53;85.79
79376;BME280;68846;53.150;18.136;2024-02-15T07:40:22;101464.58;;;7.53;85.74
79376;BME280;68846;53.150;18.136;2024-02-15T07:42:50;101457.77;;;7.54;85.98
79376;BME280;68846;53.150;18.136;2024-02-15T07:45:18;101458.59;;;7.57;85.65
79376;BME280;68846;53.150;18.136;2024-02-15T07:48:11;101453.55;;;7.58;85.90
79376;BME280;68846;53.150;18.136;2024-02-15T07:50:39;101455.85;;;7.59;86.09
79376;BME280;68846;53.150;18.136;2024-02-15T07:53:07;101453.21;;;7.58;85.75
79376;BME280;68846;53.150;18.136;2024-02-15T07:55:35;101453.41;;;7.59;86.19
79376;BME280;68846;53.150;18.136;2024-02-15T07:58:02;101453.46;;;7.61;85.65
79376;BME280;68846;53.150;18.136;2024-02-15T08:00:30;101456.30;;;7.62;86.18
79376;BME280;68846;53.150;18.136;2024-02-15T08:03:00;101458.63;;;7.63;86.01
79376;BME280;68846;53.150;18.136;2024-02-15T08:05:28;101463.05;;;7.64;86.05
79376;BME280;68846;53.150;18.136;2024-02-15T08:07:55;101462.00;;;7.64;86.09
79376;BME280;68846;53.150;18.136;2024-02-15T08:10:24;101463.27;;;7.66;86.06
79376;BME280;68846;53.150;18.136;2024-02-15T08:12:53;101463.04;;;7.68;86.11
79376;BME280;68846;53.150;18.136;2024-02-15T08:15:22;101465.91;;;7.70;86.20
79376;BME280;68846;53.150;18.136;2024-02-15T08:17:50;101467.60;;;7.74;86.30
79376;BME280;68846;53.150;18.136;2024-02-15T08:20:18;101468.36;;;7.75;86.13
79376;BME280;68846;53.150;18.136;2024-02-15T08:22:48;101468.56;;;7.76;85.99
79376;BME280;68846;53.150;18.136;2024-02-15T08:25:15;101471.55;;;7.76;86.19
79376;BME280;68846;53.150;18.136;2024-02-15T08:27:43;101468.09;;;7.78;86.40
79376;BME280;68846;53.150;18.136;2024-02-15T08:30:15;101473.29;;;7.81;86.48
79376;BME280;68846;53.150;18.136;2024-02-15T08:32:43;101473.07;;;7.85;86.34
79376;BME280;68846;53.150;18.136;2024-02-15T08:35:13;101473.45;;;7.86;86.43
79376;BME280;68846;53.150;18.136;2024-02-15T08:37:40;101473.71;;;7.88;86.54
79376;BME280;68846;53.150;18.136;2024-02-15T08:40:09;101475.75;;;7.91;86.53
79376;BME280;68846;53.150;18.136;2024-02-15T08:42:42;101478.11;;;7.93;86.79
79376;BME280;68846;53.150;18.136;2024-02-15T08:45:10;101478.15;;;7.95;86.78
79376;BME280;68846;53.150;18.136;2024-02-15T08:47:39;101477.61;;;7.95;86.49
79376;BME280;68846;53.150;18.136;2024-02-15T08:50:08;101483.21;;;7.94;86.45
79376;BME280;68846;53.150;18.136;2024-02-15T08:52:39;101484.68;;;7.96;86.79
79376;BME280;68846;53.150;18.136;2024-02-15T08:55:10;101482.16;;;7.99;86.52
79376;BME280;68846;53.150;18.136;2024-02-15T08:57:41;101478.37;;;8.01;86.60
79376;BME280;68846;53.150;18.136;2024-02-15T09:00:09;101482.43;;;8.02;86.68
79376;BME280;68846;53.150;18.136;2024-02-15T09:02:40;101486.05;;;8.05;86.61
79376;BME280;68846;53.150;18.136;2024-02-15T09:05:08;101487.73;;;8.09;86.75
79376;BME280;68846;53.150;18.136;2024-02-15T09:07:36;101485.89;;;8.11;86.73
79376;BME280;68846;53.150;18.136;2024-02-15T09:10:13;101485.25;;;8.13;86.82
79376;BME280;68846;53.150;18.136;2024-02-15T09:12:42;101478.41;;;8.13;86.86
79376;BME280;68846;53.150;18.136;2024-02-15T09:15:10;101476.17;;;8.15;86.67
79376;BME280;68846;53.150;18.136;2024-02-15T09:17:41;101471.02;;;8.17;86.85
79376;BME280;68846;53.150;18.136;2024-02-15T09:20:15;101469.02;;;8.21;86.93
79376;BME280;68846;53.150;18.136;2024-02-15T09:22:43;101466.51;;;8.24;86.98
79376;BME280;68846;53.150;18.136;2024-02-15T09:25:13;101475.05;;;8.28;86.61
79376;BME280;68846;53.150;18.136;2024-02-15T09:27:41;101481.61;;;8.30;86.74
79376;BME280;68846;53.150;18.136;2024-02-15T09:30:09;101482.28;;;8.34;86.95
79376;BME280;68846;53.150;18.136;2024-02-15T09:32:37;101487.33;;;8.38;86.87
79376;BME280;68846;53.150;18.136;2024-02-15T09:35:06;101484.97;;;8.40;86.70
79376;BME280;68846;53.150;18.136;2024-02-15T09:37:42;101483.41;;;8.41;86.99
79376;BME280;68846;53.150;18.136;2024-02-15T09:40:16;101483.80;;;8.42;86.67
79376;BME280;68846;53.150;18.136;2024-02-15T09:42:45;101483.64;;;8.43;87.06
79376;BME280;68846;53.150;18.136;2024-02-15T09:45:14;101475.23;;;8.44;87.20
79376;BME280;68846;53.150;18.136;2024-02-15T09:47:45;101476.56;;;8.46;87.07
79376;BME280;68846;53.150;18.136;2024-02-15T09:50:15;101473.83;;;8.49;87.02
79376;BME280;68846;53.150;18.136;2024-02-15T09:52:50;101478.95;;;8.55;87.23
79376;BME280;68846;53.150;18.136;2024-02-15T09:55:22;101482.10;;;8.61;87.00
79376;BME280;68846;53.150;18.136;2024-02-15T09:57:50;101479.77;;;8.64;87.01
79376;BME280;68846;53.150;18.136;2024-02-15T10:00:17;101483.16;;;8.66;87.03
79376;BME280;68846;53.150;18.136;2024-02-15T10:02:55;101487.45;;;8.69;87.07
79376;BME280;68846;53.150;18.136;2024-02-15T10:05:22;101487.33;;;8.70;87.18
79376;BME280;68846;53.150;18.136;2024-02-15T10:07:50;101489.36;;;8.74;87.11
79376;BME280;68846;53.150;18.136;2024-02-15T10:10:22;101493.52;;;8.78;86.97
79376;BME280;68846;53.150;18.136;2024-02-15T10:12:51;101487.31;;;8.81;87.21
79376;BME280;68846;53.150;18.136;2024-02-15T10:15:31;101490.48;;;8.88;87.43
79376;BME280;68846;53.150;18.136;2024-02-15T10:17:59;101490.48;;;8.93;87.16
79376;BME280;68846;53.150;18.136;2024-02-15T10:20:27;101491.47;;;8.97;87.02
79376;BME280;68846;53.150;18.136;2024-02-15T10:23:08;101491.73;;;9.00;87.23
79376;BME280;68846;53.150;18.136;2024-02-15T10:25:41;101483.91;;;9.03;86.74
79376;BME280;68846;53.150;18.136;2024-02-15T10:28:11;101480.46;;;9.05;86.99
79376;BME280;68846;53.150;18.136;2024-02-15T10:30:41;101478.19;;;9.05;87.00
79376;BME280;68846;53.150;18.136;2024-02-15T10:33:17;101479.41;;;9.05;86.72
79376;BME280;68846;53.150;18.136;2024-02-15T10:35:46;101472.17;;;9.04;86.74
79376;BME280;68846;53.150;18.136;2024-02-15T10:38:14;101467.59;;;9.03;86.87
79376;BME280;68846;53.150;18.136;2024-02-15T10:40:42;101467.44;;;9.04;86.84
79376;BME280;68846;53.150;18.136;2024-02-15T10:43:10;101468.23;;;9.07;86.81
79376;BME280;68846;53.150;18.136;2024-02-15T10:45:40;101470.73;;;9.08;86.63
79376;BME280;68846;53.150;18.136;2024-02-15T10:48:09;101465.30;;;9.08;86.72
79376;BME280;68846;53.150;18.136;2024-02-15T10:50:39;101466.72;;;9.09;86.88
79376;BME280;68846;53.150;18.136;2024-02-15T10:53:27;101464.20;;;9.13;87.10
79376;BME280;68846;53.150;18.136;2024-02-15T10:58:38;101456.52;;;9.15;86.73
79376;BME280;68846;53.150;18.136;2024-02-15T11:01:09;101456.27;;;9.18;87.15
79376;BME280;68846;53.150;18.136;2024-02-15T11:03:59;101453.96;;;9.24;86.95
79376;BME280;68846;53.150;18.136;2024-02-15T11:06:27;101457.84;;;9.30;87.16
79376;BME280;68846;53.150;18.136;2024-02-15T11:08:57;101454.84;;;9.36;87.13
79376;BME280;68846;53.150;18.136;2024-02-15T11:11:26;101453.61;;;9.42;87.37
79376;BME280;68846;53.150;18.136;2024-02-15T11:14:31;101451.26;;;9.47;86.83
79376;BME280;68846;53.150;18.136;2024-02-15T11:17:00;101445.73;;;9.50;86.98
79376;BME280;68846;53.150;18.136;2024-02-15T11:19:41;101447.30;;;9.56;86.93
79376;BME280;68846;53.150;18.136;2024-02-15T11:22:15;101448.27;;;9.60;86.88
79376;BME280;68846;53.150;18.136;2024-02-15T11:24:51;101445.88;;;9.62;86.93
79376;BME280;68846;53.150;18.136;2024-02-15T11:27:29;101449.08;;;9.63;86.91
79376;BME280;68846;53.150;18.136;2024-02-15T11:30:01;101447.02;;;9.65;86.77
79376;BME280;68846;53.150;18.136;2024-02-15T11:32:49;101447.08;;;9.67;86.75
79376;BME280;68846;53.150;18.136;2024-02-15T11:35:24;101444.79;;;9.67;86.77
79376;BME280;68846;53.150;18.136;2024-02-15T11:37:54;101446.90;;;9.67;86.95
79376;BME280;68846;53.150;18.136;2024-02-15T11:46:15;101436.02;;;9.69;86.72
79376;BME280;68846;53.150;18.136;2024-02-15T11:48:51;101434.63;;;9.69;86.63
79376;BME280;68846;53.150;18.136;2024-02-15T11:59:14;101433.25;;;9.70;86.74
79376;BME280;68846;53.150;18.136;2024-02-15T12:01:58;101432.96;;;9.72;86.80
79376;BME280;68846;53.150;18.136;2024-02-15T12:04:44;101434.39;;;9.73;86.81
79376;BME280;68846;53.150;18.136;2024-02-15T12:07:33;101437.60;;;9.75;86.90
79376;BME280;68846;53.150;18.136;2024-02-15T12:10:20;101437.30;;;9.77;86.83
79376;BME280;68846;53.150;18.136;2024-02-15T12:13:08;101439.60;;;9.77;86.56
79376;BME280;68846;53.150;18.136;2024-02-15T12:16:00;101438.21;;;9.78;86.67
79376;BME280;68846;53.150;18.136;2024-02-15T12:18:46;101439.69;;;9.81;86.85
79376;BME280;68846;53.150;18.136;2024-02-15T12:21:24;101436.72;;;9.81;86.69
79376;BME280;68846;53.150;18.136;2024-02-15T12:23:52;101438.52;;;9.83;86.46
79376;BME280;68846;53.150;18.136;2024-02-15T12:26:20;101438.46;;;9.81;86.42
79376;BME280;68846;53.150;18.136;2024-02-15T12:28:52;101440.02;;;9.79;86.56
79376;BME280;68846;53.150;18.136;2024-02-15T12:31:24;101439.34;;;9.80;86.48
79376;BME280;68846;53.150;18.136;2024-02-15T12:34:03;101431.40;;;9.80;86.36
79376;BME280;68846;53.150;18.136;2024-02-15T12:36:35;101436.15;;;9.80;86.32
79376;BME280;68846;53.150;18.136;2024-02-15T12:39:06;101433.88;;;9.80;86.43
79376;BME280;68846;53.150;18.136;2024-02-15T12:41:48;101433.15;;;9.79;86.31
79376;BME280;68846;53.150;18.136;2024-02-15T12:44:19;101433.00;;;9.80;86.48
79376;BME280;68846;53.150;18.136;2024-02-15T12:46:55;101433.36;;;9.81;86.26
79376;BME280;68846;53.150;18.136;2024-02-15T12:52:33;101432.84;;;9.81;86.35
79376;BME280;68846;53.150;18.136;2024-02-15T12:57:48;101424.23;;;9.81;86.37
79376;BME280;68846;53.150;18.136;2024-02-15T13:00:27;101422.99;;;9.81;86.39
79376;BME280;68846;53.150;18.136;2024-02-15T13:02:59;101421.30;;;9.84;86.42
79376;BME280;68846;53.150;18.136;2024-02-15T13:05:27;101423.11;;;9.85;86.49
79376;BME280;68846;53.150;18.136;2024-02-15T13:07:55;101426.41;;;9.84;86.39
79376;BME280;68846;53.150;18.136;2024-02-15T13:10:22;101423.11;;;9.85;86.55
79376;BME280;68846;53.150;18.136;2024-02-15T13:12:52;101423.66;;;9.86;86.46
79376;BME280;68846;53.150;18.136;2024-02-15T13:15:21;101424.36;;;9.87;86.61
79376;BME280;68846;53.150;18.136;2024-02-15T13:17:54;101428.78;;;9.88;86.70
79376;BME280;68846;53.150;18.136;2024-02-15T13:20:23;101428.09;;;9.88;86.62
79376;BME280;68846;53.150;18.136;2024-02-15T13:23:04;101423.00;;;9.89;86.60
79376;BME280;68846;53.150;18.136;2024-02-15T13:25:53;101420.72;;;9.89;86.42
79376;BME280;68846;53.150;18.136;2024-02-15T13:28:20;101420.51;;;9.87;86.40
79376;BME280;68846;53.150;18.136;2024-02-15T13:30:47;101420.20;;;9.89;86.37
79376;BME280;68846;53.150;18.136;2024-02-15T13:33:16;101419.04;;;9.91;86.54
79376;BME280;68846;53.150;18.136;2024-02-15T13:35:43;101427.59;;;9.96;86.39
79376;BME280;68846;53.150;18.136;2024-02-15T13:38:11;101424.48;;;9.98;86.45
79376;BME280;68846;53.150;18.136;2024-02-15T13:40:41;101423.61;;;9.99;86.39
79376;BME280;68846;53.150;18.136;2024-02-15T13:43:08;101424.90;;;10.01;86.33
79376;BME280;68846;53.150;18.136;2024-02-15T13:45:40;101423.70;;;10.02;86.43
79376;BME280;68846;53.150;18.136;2024-02-15T13:48:08;101420.16;;;10.02;86.21
79376;BME280;68846;53.150;18.136;2024-02-15T13:50:37;101414.80;;;9.98;85.91
79376;BME280;68846;53.150;18.136;2024-02-15T13:53:05;101414.21;;;9.96;86.09
79376;BME280;68846;53.150;18.136;2024-02-15T13:55:33;101417.16;;;9.94;86.16
79376;BME280;68846;53.150;18.136;2024-02-15T13:58:01;101417.35;;;9.95;86.33
79376;BME280;68846;53.150;18.136;2024-02-15T14:00:28;101413.88;;;9.97;86.47
79376;BME280;68846;53.150;18.136;2024-02-15T14:03:01;101411.49;;;10.00;86.43
79376;BME280;68846;53.150;18.136;2024-02-15T14:05:30;101414.95;;;10.04;86.31
79376;BME280;68846;53.150;18.136;2024-02-15T14:08:00;101413.58;;;10.06;86.21
79376;BME280;68846;53.150;18.136;2024-02-15T14:10:29;101409.91;;;10.07;86.19
79376;BME280;68846;53.150;18.136;2024-02-15T14:12:57;101411.57;;;10.09;86.30
79376;BME280;68846;53.150;18.136;2024-02-15T14:15:31;101409.45;;;10.09;86.22
79376;BME280;68846;53.150;18.136;2024-02-15T14:18:30;101413.52;;;10.10;86.45
79376;BME280;68846;53.150;18.136;2024-02-15T14:20:57;101417.41;;;10.11;86.18
79376;BME280;68846;53.150;18.136;2024-02-15T14:23:28;101420.95;;;10.12;86.10
79376;BME280;68846;53.150;18.136;2024-02-15T14:25:55;101417.94;;;10.11;86.16
79376;BME280;68846;53.150;18.136;2024-02-15T14:28:26;101419.00;;;10.11;86.32
79376;BME280;68846;53.150;18.136;2024-02-15T14:30:54;101419.86;;;10.10;86.10
79376;BME280;68846;53.150;18.136;2024-02-15T14:33:40;101419.45;;;10.08;86.17
79376;BME280;68846;53.150;18.136;2024-02-15T14:36:07;101419.73;;;10.06;86.18
79376;BME280;68846;53.150;18.136;2024-02-15T14:38:34;101421.66;;;10.05;86.20
79376;BME280;68846;53.150;18.136;2024-02-15T14:41:03;101420.92;;;10.04;86.28
79376;BME280;68846;53.150;18.136;2024-02-15T14:43:32;101419.32;;;10.03;86.14
79376;BME280;68846;53.150;18.136;2024-02-15T14:46:00;101419.98;;;10.02;86.23
79376;BME280;68846;53.150;18.136;2024-02-15T14:48:31;101417.85;;;10.01;86.41
79376;BME280;68846;53.150;18.136;2024-02-15T14:51:00;101416.45;;;10.01;86.13
79376;BME280;68846;53.150;18.136;2024-02-15T14:53:27;101420.48;;;10.01;86.28
79376;BME280;68846;53.150;18.136;2024-02-15T14:55:55;101418.71;;;10.00;86.16
79376;BME280;68846;53.150;18.136;2024-02-15T14:58:22;101423.45;;;10.00;86.40
79376;BME280;68846;53.150;18.136;2024-02-15T15:00:50;101423.63;;;10.00;86.35
79376;BME280;68846;53.150;18.136;2024-02-15T15:03:17;101423.98;;;9.99;86.30
79376;BME280;68846;53.150;18.136;2024-02-15T15:05:44;101427.52;;;10.00;86.34
79376;BME280;68846;53.150;18.136;2024-02-15T15:08:30;101428.42;;;10.01;86.27
79376;BME280;68846;53.150;18.136;2024-02-15T15:11:15;101436.35;;;10.01;86.48
79376;BME280;68846;53.150;18.136;2024-02-15T15:14:04;101437.42;;;10.02;86.45
79376;BME280;68846;53.150;18.136;2024-02-15T15:16:32;101437.25;;;10.02;86.35
79376;BME280;68846;53.150;18.136;2024-02-15T15:19:00;101442.17;;;10.02;86.46
79376;BME280;68846;53.150;18.136;2024-02-15T15:21:27;101440.71;;;10.00;86.50
79376;BME280;68846;53.150;18.136;2024-02-15T15:23:55;101445.30;;;10.01;86.57
79376;BME280;68846;53.150;18.136;2024-02-15T15:26:23;101443.04;;;10.02;86.54
79376;BME280;68846;53.150;18.136;2024-02-15T15:28:50;101444.12;;;10.02;86.37
79376;BME280;68846;53.150;18.136;2024-02-15T15:31:18;101442.86;;;10.02;86.48
79376;BME280;68846;53.150;18.136;2024-02-15T15:33:48;101441.80;;;10.01;86.38
79376;BME280;68846;53.150;18.136;2024-02-15T15:36:19;101443.52;;;10.00;86.46
79376;BME280;68846;53.150;18.136;2024-02-15T15:38:48;101442.98;;;9.99;86.62
79376;BME280;68846;53.150;18.136;2024-02-15T15:41:17;101440.68;;;9.99;86.44
79376;BME280;68846;53.150;18.136;2024-02-15T15:43:45;101444.36;;;9.98;86.51
79376;BME280;68846;53.150;18.136;2024-02-15T15:46:14;101445.05;;;9.97;86.52
79376;BME280;68846;53.150;18.136;2024-02-15T15:48:44;101446.76;;;9.96;86.48
79376;BME280;68846;53.150;18.136;2024-02-15T15:51:13;101446.20;;;9.95;86.63
79376;BME280;68846;53.150;18.136;2024-02-15T15:53:41;101446.38;;;9.95;86.54
79376;BME280;68846;53.150;18.136;2024-02-15T15:56:09;101444.02;;;9.92;86.66
79376;BME280;68846;53.150;18.136;2024-02-15T15:58:36;101448.61;;;9.92;86.56
79376;BME280;68846;53.150;18.136;2024-02-15T16:01:10;101446.17;;;9.93;86.61
79376;BME280;68846;53.150;18.136;2024-02-15T16:03:37;101446.16;;;9.93;86.52
79376;BME280;68846;53.150;18.136;2024-02-15T16:06:04;101448.25;;;9.92;86.64
79376;BME280;68846;53.150;18.136;2024-02-15T16:08:32;101448.80;;;9.93;86.77
79376;BME280;68846;53.150;18.136;2024-02-15T16:10:59;101451.63;;;9.94;86.52
79376;BME280;68846;53.150;18.136;2024-02-15T16:13:26;101454.79;;;9.93;86.72
79376;BME280;68846;53.150;18.136;2024-02-15T16:15:54;101457.27;;;9.93;86.84
79376;BME280;68846;53.150;18.136;2024-02-15T16:18:22;101457.80;;;9.94;86.91
79376;BME280;68846;53.150;18.136;2024-02-15T16:20:50;101465.21;;;9.95;86.80
79376;BME280;68846;53.150;18.136;2024-02-15T16:23:18;101466.81;;;9.96;86.79
79376;BME280;68846;53.150;18.136;2024-02-15T16:25:47;101465.69;;;9.93;86.54
79376;BME280;68846;53.150;18.136;2024-02-15T16:28:15;101470.25;;;9.92;86.68
79376;BME280;68846;53.150;18.136;2024-02-15T16:30:44;101471.98;;;9.90;86.77
79376;BME280;68846;53.150;18.136;2024-02-15T16:33:15;101474.82;;;9.91;86.85
79376;BME280;68846;53.150;18.136;2024-02-15T16:35:42;101474.13;;;9.92;87.06
79376;BME280;68846;53.150;18.136;2024-02-15T16:38:09;101475.59;;;9.95;87.06
79376;BME280;68846;53.150;18.136;2024-02-15T16:40:36;101475.30;;;9.97;86.98